sensor_id;sensor_type;location;lat;lon;timestamp;P1;durP1;ratioP1;P2;durP2;ratioP2
60203;SDS011;46068;52.132;4.618;2023-08-31T00:00:49;7.20;;;1.10;;
60203;SDS011;46068;52.132;4.618;2023-08-31T00:03:17;3.75;;;1.17;;
60203;SDS011;46068;52.132;4.618;2023-08-31T00:05:44;3.85;;;1.20;;
60203;SDS011;46068;52.132;4.618;2023-08-31T00:08:11;3.28;;;1.48;;
60203;SDS011;46068;52.132;4.618;2023-08-31T00:10:38;4.50;;;1.33;;
60203;SDS011;46068;52.132;4.618;2023-08-31T00:13:05;1.95;;;1.00;;
60203;SDS011;46068;52.132;4.618;2023-08-31T00:15:32;2.40;;;1.10;;
60203;SDS011;46068;52.132;4.618;2023-08-31T00:18:00;6.60;;;1.52;;
60203;SDS011;46068;52.132;4.618;2023-08-31T00:20:29;4.40;;;1.30;;
60203;SDS011;46068;52.132;4.618;2023-08-31T00:22:56;3.30;;;1.20;;
60203;SDS011;46068;52.132;4.618;2023-08-31T00:25:23;3.03;;;1.17;;
60203;SDS011;46068;52.132;4.618;2023-08-31T00:27:49;3.22;;;1.00;;
60203;SDS011;46068;52.132;4.618;2023-08-31T00:30:17;5.47;;;1.15;;
60203;SDS011;46068;52.132;4.618;2023-08-31T00:32:43;2.92;;;1.00;;
60203;SDS011;46068;52.132;4.618;2023-08-31T00:35:12;5.60;;;1.52;;
60203;SDS011;46068;52.132;4.618;2023-08-31T00:37:40;2.65;;;1.05;;
60203;SDS011;46068;52.132;4.618;2023-08-31T00:40:06;5.93;;;1.27;;
60203;SDS011;46068;52.132;4.618;2023-08-31T00:42:34;4.00;;;0.82;;
60203;SDS011;46068;52.132;4.618;2023-08-31T00:45:00;4.28;;;1.23;;
60203;SDS011;46068;52.132;4.618;2023-08-31T00:47:27;4.35;;;1.30;;
60203;SDS011;46068;52.132;4.618;2023-08-31T00:49:53;2.55;;;1.13;;
60203;SDS011;46068;52.132;4.618;2023-08-31T00:52:19;2.17;;;1.15;;
60203;SDS011;46068;52.132;4.618;2023-08-31T00:54:47;4.63;;;1.30;;
60203;SDS011;46068;52.132;4.618;2023-08-31T00:57:15;5.25;;;1.42;;
60203;SDS011;46068;52.132;4.618;2023-08-31T00:59:41;2.95;;;1.10;;
60203;SDS011;46068;52.132;4.618;2023-08-31T01:02:13;1.02;;;0.80;;
60203;SDS011;46068;52.132;4.618;2023-08-31T01:04:41;2.78;;;0.90;;
60203;SDS011;46068;52.132;4.618;2023-08-31T01:07:13;3.28;;;0.85;;
60203;SDS011;46068;52.132;4.618;2023-08-31T01:09:45;2.72;;;0.60;;
60203;SDS011;46068;52.132;4.618;2023-08-31T01:12:16;2.42;;;0.77;;
60203;SDS011;46068;52.132;4.618;2023-08-31T01:14:44;4.13;;;0.85;;
60203;SDS011;46068;52.132;4.618;2023-08-31T01:17:14;5.38;;;1.10;;
60203;SDS011;46068;52.132;4.618;2023-08-31T01:19:43;7.13;;;1.00;;
60203;SDS011;46068;52.132;4.618;2023-08-31T01:22:11;6.45;;;0.88;;
60203;SDS011;46068;52.132;4.618;2023-08-31T01:24:40;4.60;;;0.70;;
60203;SDS011;46068;52.132;4.618;2023-08-31T01:27:07;1.30;;;0.73;;
60203;SDS011;46068;52.132;4.618;2023-08-31T01:29:33;2.55;;;0.95;;
60203;SDS011;46068;52.132;4.618;2023-08-31T01:32:00;4.00;;;1.02;;
60203;SDS011;46068;52.132;4.618;2023-08-31T01:34:26;3.42;;;0.60;;
60203;SDS011;46068;52.132;4.618;2023-08-31T01:36:53;3.63;;;0.57;;
60203;SDS011;46068;52.132;4.618;2023-08-31T01:39:23;4.53;;;1.13;;
60203;SDS011;46068;52.132;4.618;2023-08-31T01:41:53;4.80;;;0.82;;
60203;SDS011;46068;52.132;4.618;2023-08-31T01:44:21;3.40;;;0.60;;
60203;SDS011;46068;52.132;4.618;2023-08-31T01:46:51;2.15;;;0.50;;
60203;SDS011;46068;52.132;4.618;2023-08-31T01:49:19;5.13;;;1.10;;
60203;SDS011;46068;52.132;4.618;2023-08-31T01:51:45;3.20;;;0.88;;
60203;SDS011;46068;52.132;4.618;2023-08-31T01:54:11;4.68;;;0.63;;
60203;SDS011;46068;52.132;4.618;2023-08-31T01:56:38;2.88;;;0.60;;
60203;SDS011;46068;52.132;4.618;2023-08-31T01:59:05;3.05;;;0.57;;
60203;SDS011;46068;52.132;4.618;2023-08-31T02:01:32;3.00;;;0.57;;
60203;SDS011;46068;52.132;4.618;2023-08-31T02:03:58;1.10;;;0.40;;
60203;SDS011;46068;52.132;4.618;2023-08-31T02:06:24;4.25;;;0.95;;
60203;SDS011;46068;52.132;4.618;2023-08-31T02:08:51;3.22;;;0.60;;
60203;SDS011;46068;52.132;4.618;2023-08-31T02:11:17;2.90;;;0.60;;
60203;SDS011;46068;52.132;4.618;2023-08-31T02:13:43;1.85;;;0.70;;
60203;SDS011;46068;52.132;4.618;2023-08-31T02:16:11;2.80;;;0.90;;
60203;SDS011;46068;52.132;4.618;2023-08-31T02:18:37;2.58;;;0.70;;
60203;SDS011;46068;52.132;4.618;2023-08-31T02:21:03;3.20;;;0.68;;
60203;SDS011;46068;52.132;4.618;2023-08-31T02:23:32;1.92;;;0.70;;
60203;SDS011;46068;52.132;4.618;2023-08-31T02:25:58;1.10;;;0.50;;
60203;SDS011;46068;52.132;4.618;2023-08-31T02:28:24;5.85;;;0.77;;
60203;SDS011;46068;52.132;4.618;2023-08-31T02:30:57;4.57;;;0.60;;
60203;SDS011;46068;52.132;4.618;2023-08-31T02:33:24;2.75;;;0.73;;
60203;SDS011;46068;52.132;4.618;2023-08-31T02:35:51;3.33;;;0.80;;
60203;SDS011;46068;52.132;4.618;2023-08-31T02:38:17;3.33;;;0.80;;
60203;SDS011;46068;52.132;4.618;2023-08-31T02:40:45;1.45;;;0.60;;
60203;SDS011;46068;52.132;4.618;2023-08-31T02:43:11;3.53;;;0.80;;
60203;SDS011;46068;52.132;4.618;2023-08-31T02:45:38;4.15;;;0.90;;
60203;SDS011;46068;52.132;4.618;2023-08-31T02:48:06;2.22;;;0.75;;
60203;SDS011;46068;52.132;4.618;2023-08-31T02:50:34;4.40;;;1.10;;
60203;SDS011;46068;52.132;4.618;2023-08-31T02:53:00;2.17;;;0.75;;
60203;SDS011;46068;52.132;4.618;2023-08-31T02:55:26;4.72;;;1.10;;
60203;SDS011;46068;52.132;4.618;2023-08-31T02:57:52;5.65;;;1.00;;
60203;SDS011;46068;52.132;4.618;2023-08-31T03:00:19;5.32;;;1.00;;
60203;SDS011;46068;52.132;4.618;2023-08-31T03:02:46;3.38;;;1.00;;
60203;SDS011;46068;52.132;4.618;2023-08-31T03:05:12;3.83;;;1.13;;
60203;SDS011;46068;52.132;4.618;2023-08-31T03:07:40;2.22;;;1.10;;
60203;SDS011;46068;52.132;4.618;2023-08-31T03:10:07;4.45;;;1.40;;
60203;SDS011;46068;52.132;4.618;2023-08-31T03:12:33;3.80;;;1.20;;
60203;SDS011;46068;52.132;4.618;2023-08-31T03:14:59;3.38;;;1.20;;
60203;SDS011;46068;52.132;4.618;2023-08-31T03:17:25;2.97;;;1.25;;
60203;SDS011;46068;52.132;4.618;2023-08-31T03:19:52;3.15;;;1.40;;
60203;SDS011;46068;52.132;4.618;2023-08-31T03:22:18;2.88;;;1.50;;
60203;SDS011;46068;52.132;4.618;2023-08-31T03:24:46;3.60;;;1.30;;
60203;SDS011;46068;52.132;4.618;2023-08-31T03:27:12;2.85;;;1.45;;
60203;SDS011;46068;52.132;4.618;2023-08-31T03:29:38;8.07;;;1.85;;
60203;SDS011;46068;52.132;4.618;2023-08-31T03:32:05;3.60;;;1.50;;
60203;SDS011;46068;52.132;4.618;2023-08-31T03:34:31;4.90;;;1.23;;
60203;SDS011;46068;52.132;4.618;2023-08-31T03:36:58;2.35;;;1.40;;
60203;SDS011;46068;52.132;4.618;2023-08-31T03:39:24;3.58;;;1.40;;
60203;SDS011;46068;52.132;4.618;2023-08-31T03:41:52;3.20;;;1.30;;
60203;SDS011;46068;52.132;4.618;2023-08-31T03:44:20;6.80;;;1.25;;
60203;SDS011;46068;52.132;4.618;2023-08-31T03:46:46;3.70;;;1.20;;
60203;SDS011;46068;52.132;4.618;2023-08-31T03:49:12;4.20;;;1.92;;
60203;SDS011;46068;52.132;4.618;2023-08-31T03:51:38;6.18;;;1.10;;
60203;SDS011;46068;52.132;4.618;2023-08-31T03:54:05;5.05;;;1.08;;
60203;SDS011;46068;52.132;4.618;2023-08-31T03:56:31;5.80;;;1.08;;
60203;SDS011;46068;52.132;4.618;2023-08-31T03:59:00;4.10;;;1.23;;
60203;SDS011;46068;52.132;4.618;2023-08-31T04:01:28;3.88;;;0.95;;
60203;SDS011;46068;52.132;4.618;2023-08-31T04:03:54;5.55;;;1.60;;
60203;SDS011;46068;52.132;4.618;2023-08-31T04:06:21;5.25;;;1.58;;
60203;SDS011;46068;52.132;4.618;2023-08-31T04:08:47;6.38;;;1.27;;
60203;SDS011;46068;52.132;4.618;2023-08-31T04:11:13;3.33;;;1.40;;
60203;SDS011;46068;52.132;4.618;2023-08-31T04:13:39;5.10;;;1.58;;
60203;SDS011;46068;52.132;4.618;2023-08-31T04:16:07;6.88;;;1.35;;
60203;SDS011;46068;52.132;4.618;2023-08-31T04:18:33;4.40;;;1.17;;
60203;SDS011;46068;52.132;4.618;2023-08-31T04:20:59;4.45;;;1.23;;
60203;SDS011;46068;52.132;4.618;2023-08-31T04:23:28;5.72;;;1.60;;
60203;SDS011;46068;52.132;4.618;2023-08-31T04:25:55;9.75;;;1.13;;
60203;SDS011;46068;52.132;4.618;2023-08-31T04:28:22;10.65;;;1.52;;
60203;SDS011;46068;52.132;4.618;2023-08-31T04:30:49;7.57;;;1.58;;
60203;SDS011;46068;52.132;4.618;2023-08-31T04:33:17;9.05;;;2.05;;
60203;SDS011;46068;52.132;4.618;2023-08-31T04:35:43;10.50;;;2.03;;
60203;SDS011;46068;52.132;4.618;2023-08-31T04:38:09;9.50;;;2.00;;
60203;SDS011;46068;52.132;4.618;2023-08-31T04:40:36;11.80;;;1.50;;
60203;SDS011;46068;52.132;4.618;2023-08-31T04:43:02;8.88;;;1.38;;
60203;SDS011;46068;52.132;4.618;2023-08-31T04:45:28;8.13;;;1.00;;
60203;SDS011;46068;52.132;4.618;2023-08-31T04:47:55;10.90;;;1.58;;
60203;SDS011;46068;52.132;4.618;2023-08-31T04:50:23;4.68;;;0.80;;
60203;SDS011;46068;52.132;4.618;2023-08-31T04:52:49;6.90;;;1.05;;
60203;SDS011;46068;52.132;4.618;2023-08-31T04:55:16;9.15;;;1.60;;
60203;SDS011;46068;52.132;4.618;2023-08-31T04:57:42;10.75;;;0.98;;
60203;SDS011;46068;52.132;4.618;2023-08-31T05:00:08;5.68;;;0.93;;
60203;SDS011;46068;52.132;4.618;2023-08-31T05:02:35;10.48;;;1.45;;
60203;SDS011;46068;52.132;4.618;2023-08-31T05:05:01;7.85;;;0.98;;
60203;SDS011;46068;52.132;4.618;2023-08-31T05:07:29;5.25;;;0.90;;
60203;SDS011;46068;52.132;4.618;2023-08-31T05:09:55;4.10;;;0.98;;
60203;SDS011;46068;52.132;4.618;2023-08-31T05:12:22;4.78;;;1.00;;
60203;SDS011;46068;52.132;4.618;2023-08-31T05:14:48;5.60;;;0.98;;
60203;SDS011;46068;52.132;4.618;2023-08-31T05:17:14;6.10;;;0.82;;
60203;SDS011;46068;52.132;4.618;2023-08-31T05:19:40;3.92;;;0.70;;
60203;SDS011;46068;52.132;4.618;2023-08-31T05:22:07;5.60;;;0.90;;
60203;SDS011;46068;52.132;4.618;2023-08-31T05:24:34;7.95;;;1.00;;
60203;SDS011;46068;52.132;4.618;2023-08-31T05:27:01;6.25;;;0.80;;
60203;SDS011;46068;52.132;4.618;2023-08-31T05:29:27;4.88;;;0.93;;
60203;SDS011;46068;52.132;4.618;2023-08-31T05:31:55;4.03;;;0.82;;
60203;SDS011;46068;52.132;4.618;2023-08-31T05:34:21;5.80;;;0.90;;
60203;SDS011;46068;52.132;4.618;2023-08-31T05:36:48;5.68;;;1.05;;
60203;SDS011;46068;52.132;4.618;2023-08-31T05:39:14;4.82;;;0.90;;
60203;SDS011;46068;52.132;4.618;2023-08-31T05:41:43;5.93;;;0.90;;
60203;SDS011;46068;52.132;4.618;2023-08-31T05:44:09;11.68;;;1.40;;
60203;SDS011;46068;52.132;4.618;2023-08-31T05:46:36;4.32;;;0.90;;
60203;SDS011;46068;52.132;4.618;2023-08-31T05:49:03;4.15;;;1.17;;
60203;SDS011;46068;52.132;4.618;2023-08-31T05:51:29;5.95;;;0.98;;
60203;SDS011;46068;52.132;4.618;2023-08-31T05:53:56;5.97;;;0.85;;
60203;SDS011;46068;52.132;4.618;2023-08-31T05:56:22;8.32;;;1.70;;
60203;SDS011;46068;52.132;4.618;2023-08-31T05:58:49;12.80;;;1.98;;
60203;SDS011;46068;52.132;4.618;2023-08-31T06:01:19;7.65;;;1.40;;
60203;SDS011;46068;52.132;4.618;2023-08-31T06:03:47;8.13;;;1.52;;
60203;SDS011;46068;52.132;4.618;2023-08-31T06:06:13;6.07;;;1.00;;
60203;SDS011;46068;52.132;4.618;2023-08-31T06:08:39;6.65;;;1.40;;
60203;SDS011;46068;52.132;4.618;2023-08-31T06:11:07;9.10;;;1.75;;
60203;SDS011;46068;52.132;4.618;2023-08-31T06:13:33;10.02;;;1.40;;
60203;SDS011;46068;52.132;4.618;2023-08-31T06:16:01;9.52;;;1.63;;
60203;SDS011;46068;52.132;4.618;2023-08-31T06:18:28;9.68;;;1.80;;
60203;SDS011;46068;52.132;4.618;2023-08-31T06:20:54;10.50;;;1.90;;
60203;SDS011;46068;52.132;4.618;2023-08-31T06:23:20;9.48;;;1.48;;
60203;SDS011;46068;52.132;4.618;2023-08-31T06:25:47;5.85;;;1.45;;
60203;SDS011;46068;52.132;4.618;2023-08-31T06:28:13;7.30;;;1.33;;
60203;SDS011;46068;52.132;4.618;2023-08-31T06:30:40;8.95;;;1.50;;
60203;SDS011;46068;52.132;4.618;2023-08-31T06:33:12;5.50;;;1.13;;
60203;SDS011;46068;52.132;4.618;2023-08-31T06:35:39;6.63;;;1.38;;
60203;SDS011;46068;52.132;4.618;2023-08-31T06:38:05;9.70;;;1.85;;
60203;SDS011;46068;52.132;4.618;2023-08-31T06:40:31;6.35;;;1.80;;
60203;SDS011;46068;52.132;4.618;2023-08-31T06:42:58;8.52;;;1.90;;
60203;SDS011;46068;52.132;4.618;2023-08-31T06:45:24;7.60;;;1.70;;
60203;SDS011;46068;52.132;4.618;2023-08-31T06:47:50;14.05;;;1.88;;
60203;SDS011;46068;52.132;4.618;2023-08-31T06:50:18;7.13;;;1.77;;
60203;SDS011;46068;52.132;4.618;2023-08-31T06:52:44;8.60;;;2.08;;
60203;SDS011;46068;52.132;4.618;2023-08-31T06:55:11;7.35;;;1.65;;
60203;SDS011;46068;52.132;4.618;2023-08-31T06:57:38;8.68;;;1.67;;
60203;SDS011;46068;52.132;4.618;2023-08-31T07:00:04;6.97;;;1.40;;
60203;SDS011;46068;52.132;4.618;2023-08-31T07:02:33;5.32;;;0.90;;
60203;SDS011;46068;52.132;4.618;2023-08-31T07:04:59;5.35;;;1.08;;
60203;SDS011;46068;52.132;4.618;2023-08-31T07:07:27;3.13;;;0.93;;
60203;SDS011;46068;52.132;4.618;2023-08-31T07:09:54;7.82;;;1.05;;
60203;SDS011;46068;52.132;4.618;2023-08-31T07:12:20;7.10;;;1.20;;
60203;SDS011;46068;52.132;4.618;2023-08-31T07:14:46;2.22;;;0.65;;
60203;SDS011;46068;52.132;4.618;2023-08-31T07:17:13;8.10;;;0.90;;
60203;SDS011;46068;52.132;4.618;2023-08-31T07:19:39;5.50;;;1.15;;
60203;SDS011;46068;52.132;4.618;2023-08-31T07:22:05;3.30;;;0.93;;
60203;SDS011;46068;52.132;4.618;2023-08-31T07:24:33;2.92;;;0.70;;
60203;SDS011;46068;52.132;4.618;2023-08-31T07:27:01;6.50;;;0.90;;
60203;SDS011;46068;52.132;4.618;2023-08-31T07:29:27;5.65;;;1.05;;
60203;SDS011;46068;52.132;4.618;2023-08-31T07:31:53;6.95;;;0.98;;
60203;SDS011;46068;52.132;4.618;2023-08-31T07:34:20;4.18;;;0.80;;
60203;SDS011;46068;52.132;4.618;2023-08-31T07:36:46;8.65;;;1.00;;
60203;SDS011;46068;52.132;4.618;2023-08-31T07:39:12;3.95;;;0.90;;
60203;SDS011;46068;52.132;4.618;2023-08-31T07:41:40;2.58;;;0.60;;
60203;SDS011;46068;52.132;4.618;2023-08-31T07:44:06;5.22;;;0.90;;
60203;SDS011;46068;52.132;4.618;2023-08-31T07:46:33;6.80;;;1.15;;
60203;SDS011;46068;52.132;4.618;2023-08-31T07:48:59;4.68;;;0.88;;
60203;SDS011;46068;52.132;4.618;2023-08-31T07:51:25;9.05;;;1.02;;
60203;SDS011;46068;52.132;4.618;2023-08-31T07:53:51;3.72;;;1.10;;
60203;SDS011;46068;52.132;4.618;2023-08-31T07:56:18;5.13;;;0.77;;
60203;SDS011;46068;52.132;4.618;2023-08-31T07:58:45;3.95;;;0.98;;
60203;SDS011;46068;52.132;4.618;2023-08-31T08:01:11;2.85;;;0.70;;
60203;SDS011;46068;52.132;4.618;2023-08-31T08:03:38;3.85;;;0.70;;
60203;SDS011;46068;52.132;4.618;2023-08-31T08:06:04;4.07;;;0.82;;
60203;SDS011;46068;52.132;4.618;2023-08-31T08:08:30;3.83;;;0.80;;
60203;SDS011;46068;52.132;4.618;2023-08-31T08:10:56;3.50;;;0.75;;
60203;SDS011;46068;52.132;4.618;2023-08-31T08:13:24;3.47;;;0.82;;
60203;SDS011;46068;52.132;4.618;2023-08-31T08:15:52;4.38;;;0.80;;
60203;SDS011;46068;52.132;4.618;2023-08-31T08:18:18;4.85;;;0.93;;
60203;SDS011;46068;52.132;4.618;2023-08-31T08:20:46;3.17;;;0.50;;
60203;SDS011;46068;52.132;4.618;2023-08-31T08:23:13;3.63;;;0.80;;
60203;SDS011;46068;52.132;4.618;2023-08-31T08:25:39;3.65;;;0.82;;
60203;SDS011;46068;52.132;4.618;2023-08-31T08:28:05;2.22;;;0.80;;
60203;SDS011;46068;52.132;4.618;2023-08-31T08:30:32;5.40;;;0.70;;
60203;SDS011;46068;52.132;4.618;2023-08-31T08:32:59;3.97;;;0.82;;
60203;SDS011;46068;52.132;4.618;2023-08-31T08:35:25;2.25;;;0.88;;
60203;SDS011;46068;52.132;4.618;2023-08-31T08:37:52;4.32;;;0.90;;
60203;SDS011;46068;52.132;4.618;2023-08-31T08:40:18;4.35;;;0.90;;
60203;SDS011;46068;52.132;4.618;2023-08-31T08:42:45;5.65;;;0.98;;
60203;SDS011;46068;52.132;4.618;2023-08-31T08:45:13;4.85;;;1.20;;
60203;SDS011;46068;52.132;4.618;2023-08-31T08:47:40;3.25;;;0.80;;
60203;SDS011;46068;52.132;4.618;2023-08-31T08:50:09;4.05;;;0.80;;
60203;SDS011;46068;52.132;4.618;2023-08-31T08:52:36;4.10;;;0.80;;
60203;SDS011;46068;52.132;4.618;2023-08-31T08:55:02;3.65;;;0.77;;
60203;SDS011;46068;52.132;4.618;2023-08-31T08:57:30;3.20;;;0.80;;
60203;SDS011;46068;52.132;4.618;2023-08-31T08:59:57;3.25;;;0.80;;
60203;SDS011;46068;52.132;4.618;2023-08-31T09:02:23;3.55;;;0.95;;
60203;SDS011;46068;52.132;4.618;2023-08-31T09:04:49;3.75;;;0.90;;
60203;SDS011;46068;52.132;4.618;2023-08-31T09:07:20;2.97;;;0.90;;
60203;SDS011;46068;52.132;4.618;2023-08-31T09:09:51;4.35;;;0.70;;
60203;SDS011;46068;52.132;4.618;2023-08-31T09:12:17;4.82;;;0.77;;
60203;SDS011;46068;52.132;4.618;2023-08-31T09:14:56;4.57;;;0.60;;
60203;SDS011;46068;52.132;4.618;2023-08-31T09:17:23;3.72;;;0.60;;
60203;SDS011;46068;52.132;4.618;2023-08-31T09:19:57;6.65;;;0.80;;
60203;SDS011;46068;52.132;4.618;2023-08-31T09:22:25;2.85;;;0.90;;
60203;SDS011;46068;52.132;4.618;2023-08-31T09:24:51;4.57;;;1.00;;
60203;SDS011;46068;52.132;4.618;2023-08-31T09:27:19;7.32;;;1.00;;
60203;SDS011;46068;52.132;4.618;2023-08-31T09:29:46;3.55;;;0.75;;
60203;SDS011;46068;52.132;4.618;2023-08-31T09:32:15;4.35;;;0.65;;
60203;SDS011;46068;52.132;4.618;2023-08-31T09:34:41;3.58;;;1.00;;
60203;SDS011;46068;52.132;4.618;2023-08-31T09:37:08;4.50;;;0.77;;
60203;SDS011;46068;52.132;4.618;2023-08-31T09:39:38;3.00;;;0.90;;
60203;SDS011;46068;52.132;4.618;2023-08-31T09:42:05;2.45;;;0.75;;
60203;SDS011;46068;52.132;4.618;2023-08-31T09:44:31;3.28;;;0.80;;
60203;SDS011;46068;52.132;4.618;2023-08-31T09:46:57;3.05;;;0.75;;
60203;SDS011;46068;52.132;4.618;2023-08-31T09:49:24;1.90;;;0.70;;
60203;SDS011;46068;52.132;4.618;2023-08-31T09:51:51;1.70;;;0.55;;
60203;SDS011;46068;52.132;4.618;2023-08-31T09:54:18;4.03;;;0.80;;
60203;SDS011;46068;52.132;4.618;2023-08-31T09:56:46;3.13;;;0.85;;
60203;SDS011;46068;52.132;4.618;2023-08-31T09:59:13;4.90;;;0.95;;
60203;SDS011;46068;52.132;4.618;2023-08-31T10:01:39;2.15;;;0.57;;
60203;SDS011;46068;52.132;4.618;2023-08-31T10:04:06;3.28;;;0.70;;
60203;SDS011;46068;52.132;4.618;2023-08-31T10:06:33;3.47;;;0.73;;
60203;SDS011;46068;52.132;4.618;2023-08-31T10:09:00;2.17;;;0.80;;
60203;SDS011;46068;52.132;4.618;2023-08-31T10:11:27;2.65;;;0.65;;
60203;SDS011;46068;52.132;4.618;2023-08-31T10:13:55;4.28;;;1.02;;
60203;SDS011;46068;52.132;4.618;2023-08-31T10:16:23;1.92;;;0.60;;
60203;SDS011;46068;52.132;4.618;2023-08-31T10:18:50;3.03;;;0.82;;
60203;SDS011;46068;52.132;4.618;2023-08-31T10:21:18;3.13;;;0.50;;
60203;SDS011;46068;52.132;4.618;2023-08-31T10:23:44;4.78;;;1.02;;
60203;SDS011;46068;52.132;4.618;2023-08-31T10:26:10;2.83;;;0.50;;
60203;SDS011;46068;52.132;4.618;2023-08-31T10:28:41;1.90;;;0.70;;
60203;SDS011;46068;52.132;4.618;2023-08-31T10:31:09;1.42;;;0.43;;
60203;SDS011;46068;52.132;4.618;2023-08-31T10:33:39;1.70;;;0.50;;
60203;SDS011;46068;52.132;4.618;2023-08-31T10:36:09;1.85;;;0.60;;
60203;SDS011;46068;52.132;4.618;2023-08-31T10:38:35;4.13;;;0.50;;
60203;SDS011;46068;52.132;4.618;2023-08-31T10:41:03;1.67;;;0.68;;
60203;SDS011;46068;52.132;4.618;2023-08-31T10:43:42;2.78;;;0.75;;
60203;SDS011;46068;52.132;4.618;2023-08-31T10:46:15;5.53;;;0.98;;
60203;SDS011;46068;52.132;4.618;2023-08-31T10:48:49;4.25;;;0.57;;
60203;SDS011;46068;52.132;4.618;2023-08-31T10:51:15;5.38;;;0.60;;
60203;SDS011;46068;52.132;4.618;2023-08-31T10:53:43;2.30;;;0.50;;
60203;SDS011;46068;52.132;4.618;2023-08-31T10:56:11;2.15;;;0.57;;
60203;SDS011;46068;52.132;4.618;2023-08-31T10:58:37;2.28;;;0.60;;
60203;SDS011;46068;52.132;4.618;2023-08-31T11:01:03;3.85;;;0.60;;
60203;SDS011;46068;52.132;4.618;2023-08-31T11:03:31;3.17;;;0.75;;
60203;SDS011;46068;52.132;4.618;2023-08-31T11:05:57;3.75;;;0.70;;
60203;SDS011;46068;52.132;4.618;2023-08-31T11:08:24;2.42;;;0.80;;
60203;SDS011;46068;52.132;4.618;2023-08-31T11:10:50;3.45;;;0.52;;
60203;SDS011;46068;52.132;4.618;2023-08-31T11:13:18;2.10;;;0.55;;
60203;SDS011;46068;52.132;4.618;2023-08-31T11:15:45;2.58;;;0.60;;
60203;SDS011;46068;52.132;4.618;2023-08-31T11:18:12;4.47;;;0.60;;
60203;SDS011;46068;52.132;4.618;2023-08-31T11:20:41;2.05;;;0.63;;
60203;SDS011;46068;52.132;4.618;2023-08-31T11:23:08;4.25;;;0.85;;
60203;SDS011;46068;52.132;4.618;2023-08-31T11:25:34;4.03;;;0.80;;
60203;SDS011;46068;52.132;4.618;2023-08-31T11:28:01;3.50;;;0.50;;
60203;SDS011;46068;52.132;4.618;2023-08-31T11:30:29;4.57;;;1.00;;
60203;SDS011;46068;52.132;4.618;2023-08-31T11:32:56;3.17;;;0.90;;
60203;SDS011;46068;52.132;4.618;2023-08-31T11:35:23;1.83;;;0.70;;
60203;SDS011;46068;52.132;4.618;2023-08-31T11:37:51;1.38;;;0.80;;
60203;SDS011;46068;52.132;4.618;2023-08-31T11:40:18;2.10;;;0.60;;
60203;SDS011;46068;52.132;4.618;2023-08-31T11:42:44;3.55;;;0.80;;
60203;SDS011;46068;52.132;4.618;2023-08-31T11:45:11;4.57;;;0.60;;
60203;SDS011;46068;52.132;4.618;2023-08-31T11:47:39;4.65;;;0.90;;
60203;SDS011;46068;52.132;4.618;2023-08-31T11:50:06;1.77;;;0.85;;
60203;SDS011;46068;52.132;4.618;2023-08-31T11:52:32;3.17;;;0.63;;
60203;SDS011;46068;52.132;4.618;2023-08-31T11:55:00;2.30;;;0.80;;
60203;SDS011;46068;52.132;4.618;2023-08-31T11:57:27;4.35;;;0.80;;
60203;SDS011;46068;52.132;4.618;2023-08-31T11:59:54;3.92;;;0.60;;
60203;SDS011;46068;52.132;4.618;2023-08-31T12:02:21;2.38;;;0.70;;
60203;SDS011;46068;52.132;4.618;2023-08-31T12:04:47;3.22;;;0.90;;
60203;SDS011;46068;52.132;4.618;2023-08-31T12:07:15;4.07;;;0.90;;
60203;SDS011;46068;52.132;4.618;2023-08-31T12:09:42;4.57;;;0.80;;
60203;SDS011;46068;52.132;4.618;2023-08-31T12:12:10;2.88;;;0.82;;
60203;SDS011;46068;52.132;4.618;2023-08-31T12:14:37;2.38;;;0.80;;
60203;SDS011;46068;52.132;4.618;2023-08-31T12:17:06;4.65;;;0.90;;
60203;SDS011;46068;52.132;4.618;2023-08-31T12:19:32;4.45;;;0.80;;
60203;SDS011;46068;52.132;4.618;2023-08-31T12:21:59;2.47;;;0.60;;
60203;SDS011;46068;52.132;4.618;2023-08-31T12:24:25;2.00;;;0.60;;
60203;SDS011;46068;52.132;4.618;2023-08-31T12:26:51;6.72;;;0.90;;
60203;SDS011;46068;52.132;4.618;2023-08-31T12:29:20;1.73;;;0.63;;
60203;SDS011;46068;52.132;4.618;2023-08-31T12:31:46;3.67;;;0.80;;
60203;SDS011;46068;52.132;4.618;2023-08-31T12:34:13;4.38;;;1.15;;
60203;SDS011;46068;52.132;4.618;2023-08-31T12:36:39;4.15;;;1.10;;
60203;SDS011;46068;52.132;4.618;2023-08-31T12:39:06;4.22;;;0.95;;
60203;SDS011;46068;52.132;4.618;2023-08-31T12:41:34;4.00;;;0.90;;
60203;SDS011;46068;52.132;4.618;2023-08-31T12:44:01;3.50;;;0.90;;
60203;SDS011;46068;52.132;4.618;2023-08-31T12:46:29;2.72;;;0.77;;
60203;SDS011;46068;52.132;4.618;2023-08-31T12:48:55;3.00;;;0.80;;
60203;SDS011;46068;52.132;4.618;2023-08-31T12:51:22;2.13;;;0.75;;
60203;SDS011;46068;52.132;4.618;2023-08-31T12:53:48;2.85;;;0.80;;
60203;SDS011;46068;52.132;4.618;2023-08-31T12:56:14;3.80;;;0.90;;
60203;SDS011;46068;52.132;4.618;2023-08-31T12:58:46;3.22;;;0.82;;
60203;SDS011;46068;52.132;4.618;2023-08-31T13:01:12;4.25;;;0.80;;
60203;SDS011;46068;52.132;4.618;2023-08-31T13:03:40;1.45;;;0.55;;
60203;SDS011;46068;52.132;4.618;2023-08-31T13:06:06;3.13;;;0.80;;
60203;SDS011;46068;52.132;4.618;2023-08-31T13:08:32;3.50;;;0.90;;
60203;SDS011;46068;52.132;4.618;2023-08-31T13:11:00;4.75;;;0.80;;
60203;SDS011;46068;52.132;4.618;2023-08-31T13:13:26;3.35;;;1.08;;
60203;SDS011;46068;52.132;4.618;2023-08-31T13:15:52;3.03;;;0.90;;
60203;SDS011;46068;52.132;4.618;2023-08-31T13:18:18;3.45;;;0.75;;
60203;SDS011;46068;52.132;4.618;2023-08-31T13:20:52;3.70;;;0.73;;
60203;SDS011;46068;52.132;4.618;2023-08-31T13:23:19;3.38;;;1.10;;
60203;SDS011;46068;52.132;4.618;2023-08-31T13:25:45;5.65;;;0.70;;
60203;SDS011;46068;52.132;4.618;2023-08-31T13:28:12;4.53;;;0.82;;
60203;SDS011;46068;52.132;4.618;2023-08-31T13:30:38;2.78;;;1.00;;
60203;SDS011;46068;52.132;4.618;2023-08-31T13:33:04;3.85;;;0.90;;
60203;SDS011;46068;52.132;4.618;2023-08-31T13:35:30;2.67;;;0.88;;
60203;SDS011;46068;52.132;4.618;2023-08-31T13:37:58;6.43;;;0.80;;
60203;SDS011;46068;52.132;4.618;2023-08-31T13:40:24;3.45;;;0.90;;
60203;SDS011;46068;52.132;4.618;2023-08-31T13:42:52;2.55;;;0.75;;
60203;SDS011;46068;52.132;4.618;2023-08-31T13:45:19;4.50;;;1.25;;
60203;SDS011;46068;52.132;4.618;2023-08-31T13:47:45;3.50;;;0.90;;
60203;SDS011;46068;52.132;4.618;2023-08-31T13:50:14;3.45;;;0.70;;
60203;SDS011;46068;52.132;4.618;2023-08-31T13:52:40;4.40;;;0.93;;
60203;SDS011;46068;52.132;4.618;2023-08-31T13:55:08;4.80;;;1.10;;
60203;SDS011;46068;52.132;4.618;2023-08-31T13:57:34;4.18;;;1.00;;
60203;SDS011;46068;52.132;4.618;2023-08-31T14:00:01;3.70;;;0.88;;
60203;SDS011;46068;52.132;4.618;2023-08-31T14:02:28;3.33;;;0.90;;
60203;SDS011;46068;52.132;4.618;2023-08-31T14:04:54;4.25;;;1.00;;
60203;SDS011;46068;52.132;4.618;2023-08-31T14:07:21;2.00;;;0.70;;
60203;SDS011;46068;52.132;4.618;2023-08-31T14:09:47;5.38;;;0.90;;
60203;SDS011;46068;52.132;4.618;2023-08-31T14:12:15;3.58;;;1.00;;
60203;SDS011;46068;52.132;4.618;2023-08-31T14:14:42;2.22;;;0.73;;
60203;SDS011;46068;52.132;4.618;2023-08-31T14:17:11;3.17;;;0.80;;
60203;SDS011;46068;52.132;4.618;2023-08-31T14:19:37;2.15;;;0.80;;
60203;SDS011;46068;52.132;4.618;2023-08-31T14:22:04;6.80;;;1.13;;
60203;SDS011;46068;52.132;4.618;2023-08-31T14:24:30;5.10;;;0.93;;
60203;SDS011;46068;52.132;4.618;2023-08-31T14:26:57;2.45;;;0.85;;
60203;SDS011;46068;52.132;4.618;2023-08-31T14:29:24;4.13;;;0.90;;
60203;SDS011;46068;52.132;4.618;2023-08-31T14:31:51;2.85;;;0.90;;
60203;SDS011;46068;52.132;4.618;2023-08-31T14:34:19;7.13;;;0.90;;
60203;SDS011;46068;52.132;4.618;2023-08-31T14:36:45;3.47;;;0.75;;
60203;SDS011;46068;52.132;4.618;2023-08-31T14:39:11;2.70;;;0.95;;
60203;SDS011;46068;52.132;4.618;2023-08-31T14:41:38;3.80;;;1.00;;
60203;SDS011;46068;52.132;4.618;2023-08-31T14:44:05;3.65;;;0.60;;
60203;SDS011;46068;52.132;4.618;2023-08-31T14:46:33;2.97;;;1.02;;